Station Historical Data
Daily Summary for February 22, 2018 Units:  English    Metric   Both
« Previous Day
Next Day »
Daily Weekly Monthly Yearly Custom
  High: Low: Average:
Temperature: 38.4 °F 29.9 °F 33 °F
Dew Point: 32.6 °F 24.6 °F 28.1 °F
Humidity: 87% 75% 82%
Wind Speed: 9.0mph 0.0mph 3.9mph
Wind Gust: 13.0mph - -
Wind- - ENE
Pressure: 30.68 in 30.59 in -
Precipitation: 0.00 in    
Historical Graphs
 
 
Tabular Data for February 22, 2018
Time Temperature Dew Point Pressure Wind Wind Speed Wind Gust Humidity Rainfall Rate (Hourly)
00:04 33.5 °F 26.7 °F 30.63 in NNE 3.0 mph 5.0 mph 76% 0.00 in
00:09 33.4 °F 27.0 °F 30.63 in North 5.0 mph 6.0 mph 77% 0.00 in
00:14 33.3 °F 26.9 °F 30.64 in NNE 3.0 mph 6.0 mph 77% 0.00 in
00:19 33.2 °F 26.8 °F 30.64 in NNE 4.0 mph 5.0 mph 77% 0.00 in
00:24 33.2 °F 26.8 °F 30.64 in NNE 4.0 mph 5.0 mph 77% 0.00 in
00:29 33.0 °F 26.3 °F 30.64 in North 4.0 mph 6.0 mph 76% 0.00 in
00:34 33.0 °F 26.3 °F 30.64 in NE 4.0 mph 7.0 mph 76% 0.00 in
00:39 32.9 °F 25.8 °F 30.65 in North 3.0 mph 9.0 mph 75% 0.00 in
00:44 32.7 °F 25.6 °F 30.65 in NNE 4.0 mph 13.0 mph 75% 0.00 in
00:49 32.6 °F 25.6 °F 30.65 in North 5.0 mph 13.0 mph 75% 0.00 in
00:54 32.5 °F 25.5 °F 30.64 in North 5.0 mph 10.0 mph 75% 0.00 in
00:59 32.4 °F 25.7 °F 30.65 in North 4.0 mph 10.0 mph 76% 0.00 in
01:04 32.3 °F 25.9 °F 30.64 in North 5.0 mph 10.0 mph 77% 0.00 in
01:09 32.2 °F 25.8 °F 30.64 in NNE 5.0 mph 9.0 mph 77% 0.00 in
01:14 32.2 °F 25.8 °F 30.64 in NE 4.0 mph 7.0 mph 77% 0.00 in
01:19 32.1 °F 26.0 °F 30.64 in North 5.0 mph 6.0 mph 78% 0.00 in
01:24 32.0 °F 25.9 °F 30.64 in North 3.0 mph 8.0 mph 78% 0.00 in
01:29 32.0 °F 25.9 °F 30.64 in NNW 4.0 mph 9.0 mph 78% 0.00 in
01:34 32.0 °F 25.9 °F 30.65 in North 1.0 mph 5.0 mph 78% 0.00 in
01:39 31.9 °F 25.8 °F 30.65 in NNW 2.0 mph 7.0 mph 78% 0.00 in
01:44 31.8 °F 25.7 °F 30.66 in NNW 1.0 mph 6.0 mph 78% 0.00 in
01:49 31.7 °F 25.6 °F 30.65 in NNE 4.0 mph 6.0 mph 78% 0.00 in
01:54 31.7 °F 25.6 °F 30.65 in NNE 4.0 mph 6.0 mph 78% 0.00 in
01:59 31.6 °F 25.5 °F 30.66 in NNE 4.0 mph 6.0 mph 78% 0.00 in
02:04 31.5 °F 25.4 °F 30.66 in NNE 3.0 mph 6.0 mph 78% 0.00 in
02:09 31.6 °F 25.5 °F 30.67 in NNE 3.0 mph 6.0 mph 78% 0.00 in
02:14 31.4 °F 25.3 °F 30.66 in NNE 4.0 mph 6.0 mph 78% 0.00 in
02:19 31.4 °F 25.3 °F 30.66 in NNE 2.0 mph 5.0 mph 78% 0.00 in
02:24 31.4 °F 25.6 °F 30.66 in NE 4.0 mph 6.0 mph 79% 0.00 in
02:29 31.3 °F 25.5 °F 30.66 in North 2.0 mph 6.0 mph 79% 0.00 in
02:34 31.2 °F 25.4 °F 30.65 in North 3.0 mph 7.0 mph 79% 0.00 in
02:39 31.0 °F 24.9 °F 30.65 in NNE 2.0 mph 5.0 mph 78% 0.00 in
02:44 31.0 °F 25.2 °F 30.66 in North 3.0 mph 5.0 mph 79% 0.00 in
02:49 30.9 °F 25.2 °F 30.65 in NNE 2.0 mph 10.0 mph 79% 0.00 in
02:54 30.8 °F 24.7 °F 30.65 in NE 4.0 mph 10.0 mph 78% 0.00 in
02:59 30.8 °F 25.1 °F 30.65 in NNE 3.0 mph 6.0 mph 79% 0.00 in
03:04 30.7 °F 24.7 °F 30.65 in NNE 4.0 mph 7.0 mph 78% 0.00 in
03:09 30.6 °F 24.9 °F 30.65 in NNE 4.0 mph 7.0 mph 79% 0.00 in
03:14 30.6 °F 24.9 °F 30.65 in NNE 3.0 mph 6.0 mph 79% 0.00 in
03:19 30.6 °F 24.9 °F 30.66 in NE 3.0 mph 10.0 mph 79% 0.00 in
03:29 30.6 °F 24.9 °F 30.65 in NE 6.0 mph 10.0 mph 79% 0.00 in
03:34 30.6 °F 24.9 °F 30.65 in NE 4.0 mph 9.0 mph 79% 0.00 in
03:39 30.4 °F 24.7 °F 30.65 in NNE 4.0 mph 7.0 mph 79% 0.00 in
03:44 30.4 °F 24.7 °F 30.65 in NE 4.0 mph 7.0 mph 79% 0.00 in
03:49 30.4 °F 24.7 °F 30.65 in NE 3.0 mph 8.0 mph 79% 0.00 in
03:55 30.3 °F 24.6 °F 30.64 in NE 4.0 mph 9.0 mph 79% 0.00 in
04:00 30.3 °F 24.6 °F 30.64 in NE 4.0 mph 7.0 mph 79% 0.00 in
04:09 30.1 °F 24.7 °F 30.65 in NE 4.0 mph 8.0 mph 80% 0.00 in
04:14 30.2 °F 24.8 °F 30.65 in NNE 3.0 mph 7.0 mph 80% 0.00 in
04:19 30.1 °F 24.7 °F 30.65 in NE 4.0 mph 6.0 mph 80% 0.00 in
04:24 30.1 °F 24.7 °F 30.65 in NE 4.0 mph 5.0 mph 80% 0.00 in
04:29 30.0 °F 24.6 °F 30.65 in NE 3.0 mph 7.0 mph 80% 0.00 in
04:34 30.1 °F 24.7 °F 30.65 in NE 4.0 mph 8.0 mph 80% 0.00 in
04:44 30.1 °F 25.0 °F 30.65 in NE 2.0 mph 6.0 mph 81% 0.00 in
04:49 30.0 °F 24.9 °F 30.64 in NNE 3.0 mph 6.0 mph 81% 0.00 in
04:54 30.0 °F 24.9 °F 30.65 in NNE 3.0 mph 6.0 mph 81% 0.00 in
04:59 30.1 °F 25.0 °F 30.64 in NNE 3.0 mph 6.0 mph 81% 0.00 in
05:04 30.0 °F 24.9 °F 30.64 in NNE 2.0 mph 6.0 mph 81% 0.00 in
05:09 30.0 °F 24.9 °F 30.64 in NNE 2.0 mph 6.0 mph 81% 0.00 in
05:14 30.1 °F 25.0 °F 30.65 in NNE 3.0 mph 4.0 mph 81% 0.00 in
05:19 30.0 °F 24.9 °F 30.64 in NNE 3.0 mph 7.0 mph 81% 0.00 in
05:24 30.0 °F 24.9 °F 30.64 in NE 3.0 mph 8.0 mph 81% 0.00 in
05:29 30.0 °F 24.9 °F 30.64 in NE 2.0 mph 5.0 mph 81% 0.00 in
05:34 30.0 °F 24.9 °F 30.64 in NE 3.0 mph 6.0 mph 81% 0.00 in
05:39 30.0 °F 24.9 °F 30.63 in NE 3.0 mph 8.0 mph 81% 0.00 in
05:44 29.9 °F 24.8 °F 30.63 in NE 5.0 mph 8.0 mph 81% 0.00 in
05:49 29.9 °F 24.8 °F 30.64 in NE 2.0 mph 7.0 mph 81% 0.00 in
05:54 29.9 °F 24.8 °F 30.63 in NNE 2.0 mph 6.0 mph 81% 0.00 in
05:59 29.9 °F 24.8 °F 30.64 in ENE 4.0 mph 7.0 mph 81% 0.00 in
06:04 29.9 °F 24.8 °F 30.64 in NE 3.0 mph 7.0 mph 81% 0.00 in
06:09 29.9 °F 24.8 °F 30.64 in NE 4.0 mph 8.0 mph 81% 0.00 in
06:14 29.9 °F 24.8 °F 30.64 in NE 4.0 mph 8.0 mph 81% 0.00 in
06:19 29.9 °F 25.1 °F 30.64 in NNE 3.0 mph 8.0 mph 82% 0.00 in
06:24 30.0 °F 25.2 °F 30.64 in ENE 3.0 mph 8.0 mph 82% 0.00 in
06:29 30.0 °F 24.9 °F 30.65 in NE 2.0 mph 6.0 mph 81% 0.00 in
06:34 30.1 °F 25.0 °F 30.64 in NE 3.0 mph 6.0 mph 81% 0.00 in
06:39 30.0 °F 24.9 °F 30.65 in NE 3.0 mph 8.0 mph 81% 0.00 in
06:44 30.0 °F 24.9 °F 30.65 in ENE 2.0 mph 6.0 mph 81% 0.00 in
06:49 30.1 °F 25.3 °F 30.65 in NE 1.0 mph 4.0 mph 82% 0.00 in
06:54 30.1 °F 25.0 °F 30.64 in NE 4.0 mph 6.0 mph 81% 0.00 in
06:59 30.1 °F 25.0 °F 30.64 in NNE 4.0 mph 8.0 mph 81% 0.00 in
07:04 30.1 °F 25.0 °F 30.63 in NE 4.0 mph 8.0 mph 81% 0.00 in
07:09 30.1 °F 25.0 °F 30.64 in NE 4.0 mph 8.0 mph 81% 0.00 in
07:14 30.1 °F 25.3 °F 30.64 in NE 4.0 mph 8.0 mph 82% 0.00 in
07:19 30.2 °F 25.4 °F 30.62 in NE 4.0 mph 9.0 mph 82% 0.00 in
07:24 30.1 °F 25.0 °F 30.62 in NE 5.0 mph 9.0 mph 81% 0.00 in
07:29 30.1 °F 25.0 °F 30.62 in ENE 2.0 mph 7.0 mph 81% 0.00 in
07:34 30.2 °F 25.1 °F 30.63 in NE 3.0 mph 9.0 mph 81% 0.00 in
07:39 30.1 °F 25.0 °F 30.63 in NE 4.0 mph 9.0 mph 81% 0.00 in
07:44 30.2 °F 25.1 °F 30.63 in NE 4.0 mph 9.0 mph 81% 0.00 in
07:49 30.3 °F 25.2 °F 30.64 in NE 4.0 mph 9.0 mph 81% 0.00 in
07:54 30.3 °F 25.5 °F 30.64 in ENE 2.0 mph 7.0 mph 82% 0.00 in
07:59 30.4 °F 25.6 °F 30.64 in NE 6.0 mph 9.0 mph 82% 0.00 in
08:04 30.4 °F 25.6 °F 30.64 in NNE 2.0 mph 8.0 mph 82% 0.00 in
08:09 30.5 °F 25.7 °F 30.65 in East 3.0 mph 7.0 mph 82% 0.00 in
08:14 30.5 °F 25.7 °F 30.65 in NE 4.0 mph 8.0 mph 82% 0.00 in
08:19 30.7 °F 25.9 °F 30.65 in NNE 6.0 mph 8.0 mph 82% 0.00 in
08:24 30.8 °F 26.0 °F 30.65 in NE 3.0 mph 7.0 mph 82% 0.00 in
08:29 30.8 °F 26.0 °F 30.66 in NE 5.0 mph 7.0 mph 82% 0.00 in
08:34 30.8 °F 26.0 °F 30.66 in East 5.0 mph 7.0 mph 82% 0.00 in
08:39 30.9 °F 26.1 °F 30.66 in ENE 4.0 mph 7.0 mph 82% 0.00 in
08:44 31.0 °F 26.1 °F 30.65 in ENE 3.0 mph 7.0 mph 82% 0.00 in
08:49 31.1 °F 26.2 °F 30.66 in NE 3.0 mph 7.0 mph 82% 0.00 in
08:54 31.1 °F 26.2 °F 30.65 in East 3.0 mph 8.0 mph 82% 0.00 in
08:59 31.3 °F 26.4 °F 30.65 in NE 3.0 mph 8.0 mph 82% 0.00 in
09:04 31.4 °F 26.5 °F 30.65 in ENE 4.0 mph 7.0 mph 82% 0.00 in
09:09 31.4 °F 26.5 °F 30.65 in NE 4.0 mph 7.0 mph 82% 0.00 in
09:14 31.6 °F 26.7 °F 30.65 in East 2.0 mph 7.0 mph 82% 0.00 in
09:19 31.7 °F 26.8 °F 30.65 in ENE 2.0 mph 7.0 mph 82% 0.00 in
09:24 31.8 °F 26.6 °F 30.65 in NE 5.0 mph 9.0 mph 81% 0.00 in
09:29 31.9 °F 26.7 °F 30.65 in ENE 5.0 mph 7.0 mph 81% 0.00 in
09:34 32.0 °F 26.8 °F 30.64 in NNE 2.0 mph 9.0 mph 81% 0.00 in
09:39 32.0 °F 26.8 °F 30.64 in ENE 4.0 mph 9.0 mph 81% 0.00 in
09:44 32.1 °F 26.9 °F 30.64 in ENE 4.0 mph 9.0 mph 81% 0.00 in
09:49 32.1 °F 26.9 °F 30.64 in ENE 5.0 mph 10.0 mph 81% 0.00 in
09:54 32.2 °F 27.0 °F 30.64 in ENE 5.0 mph 10.0 mph 81% 0.00 in
09:59 32.4 °F 27.2 °F 30.65 in East 5.0 mph 9.0 mph 81% 0.00 in
10:04 32.5 °F 27.3 °F 30.65 in ENE 4.0 mph 9.0 mph 81% 0.00 in
10:09 32.6 °F 27.4 °F 30.65 in NE 4.0 mph 10.0 mph 81% 0.00 in
10:14 32.7 °F 27.5 °F 30.65 in ENE 5.0 mph 8.0 mph 81% 0.00 in
10:19 32.7 °F 27.2 °F 30.66 in ENE 2.0 mph 8.0 mph 80% 0.00 in
10:24 32.8 °F 27.3 °F 30.65 in ENE 1.0 mph 8.0 mph 80% 0.00 in
10:29 32.8 °F 27.3 °F 30.65 in ENE 4.0 mph 9.0 mph 80% 0.00 in
10:34 32.9 °F 27.4 °F 30.66 in East 2.0 mph 6.0 mph 80% 0.00 in
10:39 33.0 °F 27.5 °F 30.65 in East 3.0 mph 9.0 mph 80% 0.00 in
10:44 33.0 °F 27.5 °F 30.65 in East 3.0 mph 9.0 mph 80% 0.00 in
10:49 33.2 °F 27.7 °F 30.65 in East 2.0 mph 9.0 mph 80% 0.00 in
10:54 33.2 °F 27.7 °F 30.65 in ENE 3.0 mph 9.0 mph 80% 0.00 in
10:59 33.3 °F 27.8 °F 30.65 in East 3.0 mph 7.0 mph 80% 0.00 in
11:04 33.5 °F 28.0 °F 30.65 in ENE 4.0 mph 6.0 mph 80% 0.00 in
11:09 33.6 °F 28.1 °F 30.65 in East 3.0 mph 8.0 mph 80% 0.00 in
11:14 33.7 °F 28.2 °F 30.65 in East 4.0 mph 11.0 mph 80% 0.00 in
11:19 33.8 °F 28.3 °F 30.65 in NE 4.0 mph 9.0 mph 80% 0.00 in
11:24 33.9 °F 28.4 °F 30.65 in NE 5.0 mph 7.0 mph 80% 0.00 in
11:29 33.9 °F 28.4 °F 30.65 in NE 7.0 mph 7.0 mph 80% 0.00 in
11:34 33.9 °F 28.4 °F 30.65 in NE 3.0 mph 8.0 mph 80% 0.00 in
11:39 33.8 °F 28.6 °F 30.65 in ENE 2.0 mph 7.0 mph 81% 0.00 in
11:44 33.7 °F 28.8 °F 30.65 in East 6.0 mph 8.0 mph 82% 0.00 in
11:49 33.6 °F 29.0 °F 30.66 in ENE 3.0 mph 8.0 mph 83% 0.00 in
11:54 33.5 °F 28.9 °F 30.66 in NE 3.0 mph 8.0 mph 83% 0.00 in
11:59 33.5 °F 29.2 °F 30.66 in NE 3.0 mph 9.0 mph 84% 0.00 in
12:04 33.4 °F 29.1 °F 30.66 in NE 4.0 mph 9.0 mph 84% 0.00 in
12:09 33.5 °F 29.2 °F 30.66 in NE 4.0 mph 8.0 mph 84% 0.00 in
12:14 33.6 °F 29.3 °F 30.66 in NE 3.0 mph 10.0 mph 84% 0.00 in
12:19 34.0 °F 30.0 °F 30.66 in NE 4.0 mph 10.0 mph 85% 0.00 in
12:24 34.0 °F 29.7 °F 30.66 in NE 4.0 mph 7.0 mph 84% 0.00 in
12:29 34.1 °F 29.8 °F 30.66 in NNE 2.0 mph 7.0 mph 84% 0.00 in
12:34 34.2 °F 29.9 °F 30.67 in NNE 4.0 mph 6.0 mph 84% 0.00 in
12:39 34.1 °F 30.1 °F 30.67 in NNE 2.0 mph 6.0 mph 85% 0.00 in
12:44 34.1 °F 29.8 °F 30.67 in NNE 3.0 mph 6.0 mph 84% 0.00 in
12:49 34.0 °F 30.0 °F 30.67 in NNE 3.0 mph 6.0 mph 85% 0.00 in
12:54 33.8 °F 29.5 °F 30.68 in NNE 3.0 mph 6.0 mph 84% 0.00 in
12:59 33.6 °F 29.6 °F 30.68 in NNE 3.0 mph 6.0 mph 85% 0.00 in
13:04 33.5 °F 29.5 °F 30.68 in NNE 3.0 mph 5.0 mph 85% 0.00 in
13:09 33.6 °F 29.6 °F 30.67 in NE 5.0 mph 8.0 mph 85% 0.00 in
13:14 33.6 °F 29.9 °F 30.67 in NE 2.0 mph 9.0 mph 86% 0.01 in
13:24 34.0 °F 30.3 °F 30.68 in NE 2.0 mph 5.0 mph 86% 0.01 in
13:29 34.1 °F 30.4 °F 30.68 in NNE 2.0 mph 5.0 mph 86% 0.01 in
13:34 34.2 °F 30.4 °F 30.67 in NE 3.0 mph 5.0 mph 86% 0.01 in
13:39 34.3 °F 30.5 °F 30.67 in NE 3.0 mph 9.0 mph 86% 0.01 in
13:44 34.1 °F 30.1 °F 30.67 in NE 5.0 mph 9.0 mph 85% 0.01 in
13:49 34.3 °F 30.3 °F 30.66 in NE 4.0 mph 9.0 mph 85% 0.01 in
13:54 34.6 °F 30.6 °F 30.65 in NE 4.0 mph 9.0 mph 85% 0.01 in
13:59 35.0 °F 30.7 °F 30.65 in NE 4.0 mph 7.0 mph 84% 0.01 in
14:04 35.0 °F 30.7 °F 30.65 in NE 3.0 mph 10.0 mph 84% 0.01 in
14:09 34.8 °F 30.2 °F 30.65 in NNE 4.0 mph 12.0 mph 83% 0.01 in
14:14 35.0 °F 30.4 °F 30.65 in NNE 3.0 mph 11.0 mph 83% 0.00 in
14:19 35.2 °F 30.3 °F 30.65 in NE 5.0 mph 12.0 mph 82% 0.00 in
14:24 35.4 °F 30.5 °F 30.65 in NE 6.0 mph 12.0 mph 82% 0.00 in
14:29 35.6 °F 30.6 °F 30.64 in NE 5.0 mph 11.0 mph 82% 0.00 in
14:34 35.2 °F 30.0 °F 30.64 in NE 3.0 mph 10.0 mph 81% 0.00 in
14:39 35.3 °F 30.4 °F 30.63 in NE 7.0 mph 9.0 mph 82% 0.00 in
14:44 35.7 °F 30.7 °F 30.62 in NE 7.0 mph 11.0 mph 82% 0.00 in
14:49 36.6 °F 31.6 °F 30.62 in NE 3.0 mph 9.0 mph 82% 0.00 in
14:54 37.1 °F 31.8 °F 30.62 in NE 5.0 mph 11.0 mph 81% 0.00 in
14:59 36.8 °F 31.5 °F 30.62 in NE 6.0 mph 11.0 mph 81% 0.00 in
15:04 36.6 °F 31.3 °F 30.61 in ENE 6.0 mph 12.0 mph 81% 0.00 in
15:09 36.3 °F 30.7 °F 30.62 in ENE 4.0 mph 10.0 mph 80% 0.00 in
15:14 36.3 °F 31.0 °F 30.62 in ENE 4.0 mph 9.0 mph 81% 0.00 in
15:19 36.8 °F 31.8 °F 30.62 in NE 3.0 mph 10.0 mph 82% 0.00 in
15:24 37.4 °F 32.1 °F 30.61 in ESE 7.0 mph 10.0 mph 81% 0.00 in
15:29 37.2 °F 31.6 °F 30.61 in NE 7.0 mph 10.0 mph 80% 0.00 in
15:34 36.7 °F 31.1 °F 30.61 in ENE 5.0 mph 10.0 mph 80% 0.00 in
15:39 36.5 °F 31.2 °F 30.61 in NE 6.0 mph 9.0 mph 81% 0.00 in
15:44 37.3 °F 32.3 °F 30.60 in ENE 4.0 mph 10.0 mph 82% 0.00 in
15:49 37.6 °F 32.0 °F 30.60 in East 6.0 mph 11.0 mph 80% 0.00 in
15:54 37.9 °F 32.3 °F 30.60 in NE 2.0 mph 10.0 mph 80% 0.00 in
15:59 37.9 °F 32.3 °F 30.60 in East 3.0 mph 10.0 mph 80% 0.00 in
16:04 38.2 °F 32.6 °F 30.60 in ENE 5.0 mph 10.0 mph 80% 0.00 in
16:14 38.4 °F 32.1 °F 30.60 in ENE 2.0 mph 9.0 mph 78% 0.00 in
16:19 38.3 °F 32.0 °F 30.60 in ENE 2.0 mph 9.0 mph 78% 0.00 in
16:24 38.2 °F 32.3 °F 30.61 in ENE 4.0 mph 12.0 mph 79% 0.00 in
16:29 37.8 °F 31.9 °F 30.61 in NE 6.0 mph 12.0 mph 79% 0.00 in
16:34 37.5 °F 31.9 °F 30.62 in NE 6.0 mph 11.0 mph 80% 0.00 in
16:39 37.4 °F 31.8 °F 30.63 in NE 6.0 mph 13.0 mph 80% 0.00 in
16:44 37.4 °F 31.8 °F 30.63 in NE 6.0 mph 13.0 mph 80% 0.00 in
16:49 37.4 °F 31.8 °F 30.63 in NE 6.0 mph 11.0 mph 80% 0.00 in
16:54 37.0 °F 31.4 °F 30.62 in NNE 6.0 mph 11.0 mph 80% 0.00 in
16:59 36.5 °F 30.9 °F 30.62 in NE 6.0 mph 11.0 mph 80% 0.00 in
17:04 36.2 °F 30.9 °F 30.62 in North 5.0 mph 11.0 mph 81% 0.00 in
17:09 36.0 °F 30.7 °F 30.62 in NE 4.0 mph 11.0 mph 81% 0.00 in
17:14 35.9 °F 30.9 °F 30.62 in NNE 2.0 mph 9.0 mph 82% 0.00 in
17:19 35.7 °F 30.7 °F 30.62 in ENE 9.0 mph 12.0 mph 82% 0.00 in
17:24 35.7 °F 30.7 °F 30.62 in NE 4.0 mph 9.0 mph 82% 0.00 in
17:29 35.6 °F 30.6 °F 30.62 in ENE 2.0 mph 8.0 mph 82% 0.00 in
17:34 35.6 °F 30.9 °F 30.63 in ENE 4.0 mph 9.0 mph 83% 0.00 in
17:39 35.6 °F 30.9 °F 30.63 in ENE 4.0 mph 11.0 mph 83% 0.00 in
17:44 35.5 °F 30.8 °F 30.62 in NE 4.0 mph 11.0 mph 83% 0.00 in
17:49 35.5 °F 30.8 °F 30.62 in NE 4.0 mph 9.0 mph 83% 0.00 in
17:54 35.4 °F 30.8 °F 30.62 in NE 2.0 mph 9.0 mph 83% 0.00 in
17:59 35.2 °F 30.6 °F 30.62 in NE 8.0 mph 13.0 mph 83% 0.00 in
18:04 35.0 °F 30.4 °F 30.63 in ENE 2.0 mph 10.0 mph 83% 0.00 in
18:09 35.0 °F 30.4 °F 30.63 in East 5.0 mph 9.0 mph 83% 0.00 in
18:14 35.1 °F 30.5 °F 30.63 in ENE 5.0 mph 8.0 mph 83% 0.00 in
18:19 35.3 °F 30.7 °F 30.64 in NE 6.0 mph 9.0 mph 83% 0.00 in
18:24 35.2 °F 30.6 °F 30.64 in NE 3.0 mph 10.0 mph 83% 0.00 in
18:29 35.1 °F 30.5 °F 30.64 in NE 3.0 mph 8.0 mph 83% 0.00 in
18:34 35.0 °F 30.7 °F 30.64 in NE 4.0 mph 8.0 mph 84% 0.00 in
18:39 34.9 °F 30.6 °F 30.64 in ENE 4.0 mph 10.0 mph 84% 0.00 in
18:44 34.7 °F 30.4 °F 30.64 in ENE 4.0 mph 10.0 mph 84% 0.00 in
18:49 34.5 °F 30.2 °F 30.64 in ENE 4.0 mph 8.0 mph 84% 0.00 in
18:54 34.4 °F 30.1 °F 30.64 in ENE 4.0 mph 9.0 mph 84% 0.00 in
18:59 34.3 °F 30.0 °F 30.63 in ENE 1.0 mph 9.0 mph 84% 0.00 in
19:04 34.3 °F 30.0 °F 30.62 in ENE 5.0 mph 10.0 mph 84% 0.00 in
19:09 34.3 °F 30.0 °F 30.63 in ENE 4.0 mph 10.0 mph 84% 0.00 in
19:14 34.4 °F 30.4 °F 30.63 in East 6.0 mph 10.0 mph 85% 0.00 in
19:19 34.4 °F 30.4 °F 30.64 in NE 3.0 mph 13.0 mph 85% 0.00 in
19:24 34.4 °F 30.4 °F 30.64 in ENE 4.0 mph 7.0 mph 85% 0.00 in
19:29 34.4 °F 30.4 °F 30.64 in NE 4.0 mph 8.0 mph 85% 0.00 in
19:34 34.4 °F 30.4 °F 30.64 in NE 6.0 mph 9.0 mph 85% 0.00 in
19:39 34.3 °F 30.3 °F 30.65 in NE 5.0 mph 9.0 mph 85% 0.00 in
19:44 34.3 °F 30.3 °F 30.64 in NE 4.0 mph 9.0 mph 85% 0.00 in
19:49 34.2 °F 30.2 °F 30.64 in NE 4.0 mph 9.0 mph 85% 0.00 in
19:54 34.1 °F 30.1 °F 30.64 in NE 4.0 mph 9.0 mph 85% 0.00 in
19:59 34.0 °F 30.0 °F 30.64 in NE 4.0 mph 10.0 mph 85% 0.00 in
20:04 33.8 °F 29.8 °F 30.64 in NE 4.0 mph 10.0 mph 85% 0.00 in
20:09 33.6 °F 29.6 °F 30.64 in NE 5.0 mph 10.0 mph 85% 0.00 in
20:14 33.4 °F 29.4 °F 30.64 in NE 5.0 mph 12.0 mph 85% 0.00 in
20:19 33.3 °F 29.3 °F 30.64 in East 7.0 mph 12.0 mph 85% 0.00 in
20:24 33.2 °F 29.2 °F 30.64 in NE 3.0 mph 8.0 mph 85% 0.00 in
20:29 33.2 °F 29.2 °F 30.64 in NE 3.0 mph 7.0 mph 85% 0.00 in
20:34 33.2 °F 29.2 °F 30.64 in NE 2.0 mph 8.0 mph 85% 0.00 in
20:39 33.2 °F 29.2 °F 30.64 in NE 3.0 mph 8.0 mph 85% 0.00 in
20:44 33.2 °F 29.2 °F 30.64 in NE 3.0 mph 8.0 mph 85% 0.00 in
20:49 33.1 °F 29.1 °F 30.64 in NE 4.0 mph 10.0 mph 85% 0.00 in
20:54 33.1 °F 29.1 °F 30.64 in NE 5.0 mph 10.0 mph 85% 0.00 in
20:59 33.0 °F 29.0 °F 30.65 in East 2.0 mph 9.0 mph 85% 0.00 in
21:04 33.0 °F 29.0 °F 30.65 in NE 4.0 mph 9.0 mph 85% 0.00 in
21:09 33.0 °F 29.0 °F 30.65 in SE 1.0 mph 8.0 mph 85% 0.00 in
21:14 33.0 °F 29.0 °F 30.64 in Calm   4.0 mph 85% 0.00 in
21:19 33.0 °F 29.0 °F 30.64 in NE 1.0 mph 9.0 mph 85% 0.00 in
21:24 33.0 °F 29.0 °F 30.64 in ESE 3.0 mph 8.0 mph 85% 0.00 in
21:29 33.0 °F 29.3 °F 30.64 in ENE 3.0 mph 7.0 mph 86% 0.00 in
21:34 33.0 °F 29.3 °F 30.64 in East 2.0 mph 7.0 mph 86% 0.00 in
21:39 33.1 °F 29.4 °F 30.64 in ENE 8.0 mph 8.0 mph 86% 0.00 in
21:44 33.1 °F 29.4 °F 30.64 in ENE 4.0 mph 8.0 mph 86% 0.00 in
21:49 33.1 °F 29.4 °F 30.62 in NE 4.0 mph 10.0 mph 86% 0.00 in
21:54 33.1 °F 29.4 °F 30.63 in NE 4.0 mph 11.0 mph 86% 0.00 in
21:59 33.0 °F 29.3 °F 30.63 in NE 4.0 mph 11.0 mph 86% 0.00 in
22:04 33.1 °F 29.4 °F 30.62 in NE 5.0 mph 12.0 mph 86% 0.00 in
22:09 33.0 °F 29.3 °F 30.63 in NE 3.0 mph 10.0 mph 86% 0.00 in
22:14 33.0 °F 29.3 °F 30.63 in ENE 7.0 mph 9.0 mph 86% 0.00 in
22:19 33.0 °F 29.3 °F 30.63 in NE 5.0 mph 8.0 mph 86% 0.00 in
22:24 33.0 °F 29.3 °F 30.62 in NE 8.0 mph 11.0 mph 86% 0.00 in
22:29 33.0 °F 29.3 °F 30.61 in NE 4.0 mph 10.0 mph 86% 0.00 in
22:34 33.0 °F 29.3 °F 30.62 in NE 4.0 mph 10.0 mph 86% 0.00 in
22:39 32.9 °F 29.5 °F 30.62 in ENE 7.0 mph 9.0 mph 87% 0.00 in
22:44 33.0 °F 29.3 °F 30.62 in NE 4.0 mph 10.0 mph 86% 0.00 in
22:49 33.0 °F 29.3 °F 30.61 in NE 5.0 mph 10.0 mph 86% 0.00 in
22:54 33.1 °F 29.7 °F 30.62 in NE 5.0 mph 12.0 mph 87% 0.00 in
22:59 33.1 °F 29.7 °F 30.62 in NE 6.0 mph 12.0 mph 87% 0.00 in
23:04 33.2 °F 29.8 °F 30.63 in NE 5.0 mph 10.0 mph 87% 0.00 in
23:09 33.3 °F 29.8 °F 30.63 in NE 5.0 mph 9.0 mph 87% 0.00 in
23:14 33.3 °F 29.8 °F 30.63 in NE 6.0 mph 8.0 mph 87% 0.00 in
23:19 33.4 °F 29.9 °F 30.62 in NE 3.0 mph 8.0 mph 87% 0.00 in
23:24 33.5 °F 30.0 °F 30.63 in ENE 4.0 mph 7.0 mph 87% 0.00 in
23:29 33.5 °F 30.0 °F 30.62 in NE 6.0 mph 9.0 mph 87% 0.00 in
23:34 33.5 °F 30.0 °F 30.61 in NE 6.0 mph 9.0 mph 87% 0.00 in
23:39 33.5 °F 30.0 °F 30.61 in NE 7.0 mph 10.0 mph 87% 0.00 in
23:44 33.6 °F 30.1 °F 30.60 in NE 4.0 mph 9.0 mph 87% 0.00 in
23:49 33.7 °F 30.2 °F 30.60 in NE 5.0 mph 9.0 mph 87% 0.00 in
23:54 33.7 °F 30.2 °F 30.59 in NE 5.0 mph 10.0 mph 87% 0.00 in
23:59 33.7 °F 30.2 °F 30.59 in NE 5.0 mph 10.0 mph 87% 0.00 in
Buffalo, New York, USA
Compliments of Weather Underground - 2.5 mb